createdAt,value
2022-09-14T00:00:42.602Z,14.92
2022-09-14T00:01:45.647Z,14.98
2022-09-14T00:02:48.657Z,14.92
2022-09-14T00:03:57.707Z,14.93
2022-09-14T00:05:00.652Z,14.81
2022-09-14T00:06:08.761Z,14.92
2022-09-14T00:07:11.752Z,14.96
2022-09-14T00:08:15.629Z,15.02
2022-09-14T00:09:22.198Z,15.00
2022-09-14T00:10:24.970Z,15.05
2022-09-14T00:11:30.237Z,14.92
2022-09-14T00:12:33.337Z,14.84
2022-09-14T00:13:36.756Z,14.91
2022-09-14T00:14:40.946Z,15.08
2022-09-14T00:15:46.573Z,14.91
2022-09-14T00:16:49.959Z,14.94
2022-09-14T00:17:52.906Z,14.90
2022-09-14T00:19:05.842Z,14.95
2022-09-14T00:20:09.460Z,14.78
2022-09-14T00:21:13.423Z,14.84
2022-09-14T00:22:16.332Z,14.65
2022-09-14T00:23:19.311Z,14.79
2022-09-14T00:24:23.725Z,14.79
2022-09-14T00:25:26.714Z,14.67
2022-09-14T00:26:29.686Z,14.67
2022-09-14T00:27:33.057Z,14.71
2022-09-14T00:28:41.341Z,14.74
2022-09-14T00:29:44.350Z,14.80
2022-09-14T00:30:47.552Z,14.74
2022-09-14T00:31:50.970Z,14.73
2022-09-14T00:32:54.028Z,14.71
2022-09-14T00:33:56.973Z,14.69
2022-09-14T00:34:59.927Z,14.64
2022-09-14T00:36:26.716Z,14.74
2022-09-14T00:37:29.592Z,14.68
2022-09-14T00:38:33.720Z,14.65
2022-09-14T00:39:37.009Z,14.73
2022-09-14T00:40:41.461Z,14.79
2022-09-14T00:41:46.833Z,14.76
2022-09-14T00:42:51.859Z,14.78
2022-09-14T00:43:59.810Z,14.78
2022-09-14T00:45:08.515Z,14.69
2022-09-14T00:46:11.459Z,14.58
2022-09-14T00:47:17.097Z,14.60
2022-09-14T00:48:23.184Z,14.71
2022-09-14T00:49:27.758Z,14.72
2022-09-14T00:50:31.769Z,14.69
2022-09-14T00:51:37.949Z,14.73
2022-09-14T00:52:44.380Z,14.71
2022-09-14T00:55:00.311Z,14.70
2022-09-14T00:56:03.752Z,14.74
2022-09-14T00:57:07.217Z,14.79
2022-09-14T00:58:10.116Z,14.75
2022-09-14T00:59:17.892Z,14.82
2022-09-14T01:00:24.802Z,14.76
2022-09-14T01:02:37.619Z,14.65
2022-09-14T01:03:40.628Z,14.62
2022-09-14T01:04:43.918Z,14.62
2022-09-14T01:05:58.932Z,14.64
2022-09-14T01:07:23.601Z,14.71
2022-09-14T01:08:59.639Z,14.65
2022-09-14T01:10:26.953Z,14.66
2022-09-14T01:12:06.927Z,14.61
2022-09-14T01:13:09.893Z,14.71
2022-09-14T01:14:18.932Z,14.65
2022-09-14T01:15:32.765Z,14.67
2022-09-14T01:16:48.546Z,14.63
2022-09-14T01:18:08.577Z,14.61
2022-09-14T01:19:24.044Z,14.53
2022-09-14T01:20:36.150Z,14.66
2022-09-14T01:21:42.720Z,14.73
2022-09-14T01:22:53.185Z,14.83
2022-09-14T01:24:25.563Z,14.92
2022-09-14T01:25:56.148Z,14.70
2022-09-14T01:26:59.045Z,14.77
2022-09-14T01:28:08.381Z,14.76
2022-09-14T01:29:36.146Z,14.71
2022-09-14T01:30:44.897Z,14.56
2022-09-14T01:32:06.732Z,14.57
2022-09-14T01:33:27.815Z,14.69
2022-09-14T01:34:54.781Z,14.79
2022-09-14T01:36:01.686Z,14.70
2022-09-14T01:37:26.242Z,14.66
2022-09-14T01:38:32.006Z,14.55
2022-09-14T01:39:38.490Z,14.66
2022-09-14T01:40:48.533Z,14.62
2022-09-14T01:41:54.669Z,14.49
2022-09-14T01:43:15.380Z,14.47
2022-09-14T01:44:32.332Z,14.46
2022-09-14T01:45:38.804Z,14.47
2022-09-14T01:46:46.027Z,14.40
2022-09-14T01:48:00.631Z,14.50
2022-09-14T01:49:20.878Z,14.55
2022-09-14T01:50:31.542Z,14.46
2022-09-14T01:51:39.820Z,14.47
2022-09-14T01:52:47.643Z,14.43
2022-09-14T01:53:57.834Z,14.48
2022-09-14T01:55:08.122Z,14.50
2022-09-14T01:56:23.963Z,14.52
2022-09-14T01:57:35.339Z,14.49
2022-09-14T01:58:56.410Z,14.52
2022-09-14T02:00:05.646Z,14.43
2022-09-14T02:01:14.509Z,14.50
2022-09-14T02:02:24.128Z,14.50
2022-09-14T02:03:32.924Z,14.52
2022-09-14T02:05:04.009Z,14.57
2022-09-14T02:06:09.545Z,14.52
2022-09-14T02:07:12.664Z,14.53
2022-09-14T02:08:15.720Z,14.57
2022-09-14T02:09:26.663Z,14.58
2022-09-14T02:10:29.854Z,14.56
2022-09-14T02:11:32.779Z,14.49
2022-09-14T02:12:36.618Z,14.59
2022-09-14T02:13:39.784Z,14.65
2022-09-14T02:14:45.605Z,14.56
2022-09-14T02:15:48.572Z,14.54
2022-09-14T02:16:52.318Z,14.46
2022-09-14T02:17:55.700Z,14.60
2022-09-14T02:19:01.872Z,14.81
2022-09-14T02:20:08.472Z,14.86
2022-09-14T02:21:18.665Z,14.79
2022-09-14T02:22:21.689Z,14.83
2022-09-14T02:23:24.800Z,14.60
2022-09-14T02:24:28.750Z,14.43
2022-09-14T02:25:32.418Z,14.43
2022-09-14T02:26:35.809Z,14.44
2022-09-14T02:27:38.854Z,14.39
2022-09-14T02:28:41.912Z,14.48
2022-09-14T02:29:45.024Z,14.46
2022-09-14T02:31:19.609Z,14.50
2022-09-14T02:32:44.100Z,14.54
2022-09-14T02:33:49.886Z,14.89
2022-09-14T02:35:26.518Z,14.92
2022-09-14T02:36:46.862Z,15.00
2022-09-14T02:37:55.685Z,14.99
2022-09-14T02:39:14.462Z,14.94
2022-09-14T02:40:39.319Z,14.96
2022-09-14T02:42:17.535Z,14.91
2022-09-14T02:43:49.775Z,14.85
2022-09-14T02:45:11.810Z,14.94
2022-09-14T02:46:19.785Z,14.91
2022-09-14T02:47:44.349Z,14.98
2022-09-14T02:48:55.426Z,14.94
2022-09-14T02:50:04.623Z,14.90
2022-09-14T02:51:25.742Z,14.99
2022-09-14T02:52:38.264Z,15.07
2022-09-14T02:53:59.826Z,14.98
2022-09-14T02:55:08.472Z,15.17
2022-09-14T02:56:12.890Z,15.15
2022-09-14T02:57:16.282Z,15.04
2022-09-14T02:58:19.298Z,15.03
2022-09-14T02:59:22.996Z,15.01
2022-09-14T03:00:25.949Z,15.09
2022-09-14T03:01:28.896Z,15.00
2022-09-14T03:02:31.771Z,14.98
2022-09-14T03:03:35.817Z,15.11
2022-09-14T03:04:38.959Z,15.05
2022-09-14T03:05:42.487Z,15.09
2022-09-14T03:06:45.771Z,15.12
2022-09-14T03:07:48.703Z,15.09
2022-09-14T03:08:51.911Z,15.09
2022-09-14T03:09:55.002Z,15.05
2022-09-14T03:10:58.635Z,15.10
2022-09-14T03:12:01.681Z,15.09
2022-09-14T03:13:05.206Z,15.09
2022-09-14T03:14:08.106Z,15.13
2022-09-14T03:15:11.616Z,15.07
2022-09-14T03:16:16.637Z,15.17
2022-09-14T03:17:19.595Z,15.10
2022-09-14T03:18:22.889Z,15.11
2022-09-14T03:19:25.907Z,15.11
2022-09-14T03:20:32.407Z,15.14
2022-09-14T03:21:35.352Z,15.15
2022-09-14T03:22:38.379Z,15.18
2022-09-14T03:23:45.081Z,15.16
2022-09-14T03:24:47.989Z,15.15
2022-09-14T03:25:50.874Z,15.18
2022-09-14T03:26:53.905Z,15.18
2022-09-14T03:27:59.835Z,15.28
2022-09-14T03:29:04.520Z,15.30
2022-09-14T03:30:08.352Z,15.33
2022-09-14T03:31:12.795Z,15.44
2022-09-14T03:32:15.854Z,15.34
2022-09-14T03:33:18.707Z,15.30
2022-09-14T03:34:22.777Z,15.26
2022-09-14T03:35:29.441Z,15.23
2022-09-14T03:36:32.829Z,15.21
2022-09-14T03:37:41.546Z,15.31
2022-09-14T03:38:46.381Z,15.24
2022-09-14T03:39:49.391Z,15.12
2022-09-14T03:40:53.357Z,15.21
2022-09-14T03:41:56.183Z,15.32
2022-09-14T03:42:59.482Z,15.19
2022-09-14T03:44:02.480Z,15.01
2022-09-14T03:45:05.893Z,15.15
2022-09-14T03:46:11.260Z,15.22
2022-09-14T03:47:14.444Z,15.32
2022-09-14T03:48:17.338Z,15.31
2022-09-14T03:49:20.232Z,15.31
2022-09-14T03:50:23.142Z,15.30
2022-09-14T03:51:29.690Z,15.20
2022-09-14T03:52:33.702Z,15.27
2022-09-14T03:53:37.568Z,15.39
2022-09-14T03:54:40.849Z,15.42
2022-09-14T03:55:43.615Z,15.11
2022-09-14T03:56:46.458Z,14.97
2022-09-14T03:57:49.377Z,14.94
2022-09-14T03:58:52.415Z,15.08
2022-09-14T03:59:55.387Z,15.15
2022-09-14T04:01:05.037Z,15.18
2022-09-14T04:02:07.949Z,15.16
2022-09-14T04:03:10.950Z,15.32
2022-09-14T04:04:14.119Z,15.32
2022-09-14T04:05:21.589Z,15.35
2022-09-14T04:06:26.581Z,15.23
2022-09-14T04:07:29.847Z,15.19
2022-09-14T04:08:35.697Z,15.14
2022-09-14T04:09:39.044Z,15.11
2022-09-14T04:10:41.899Z,15.15
2022-09-14T04:11:44.717Z,14.99
2022-09-14T04:12:47.656Z,14.82
2022-09-14T04:13:51.485Z,14.90
2022-09-14T04:14:54.330Z,14.95
2022-09-14T04:16:01.478Z,14.99
2022-09-14T04:17:04.866Z,15.01
2022-09-14T04:18:11.494Z,14.80
2022-09-14T04:19:14.788Z,14.95
2022-09-14T04:20:21.147Z,14.96
2022-09-14T04:21:25.706Z,14.93
2022-09-14T04:22:28.477Z,14.92
2022-09-14T04:23:32.602Z,14.87
2022-09-14T04:24:35.761Z,14.83
2022-09-14T04:25:38.956Z,14.78
2022-09-14T04:26:42.745Z,14.73
2022-09-14T04:27:55.031Z,14.76
2022-09-14T04:29:07.298Z,14.39
2022-09-14T04:30:12.030Z,14.47
2022-09-14T04:31:15.290Z,14.62
2022-09-14T04:32:18.178Z,14.67
2022-09-14T04:33:21.079Z,14.61
2022-09-14T04:34:23.946Z,14.65
2022-09-14T04:35:26.837Z,14.56
2022-09-14T04:36:31.574Z,14.68
2022-09-14T04:37:34.470Z,14.70
2022-09-14T04:38:39.090Z,14.76
2022-09-14T04:39:42.692Z,14.77
2022-09-14T04:40:46.478Z,14.72
2022-09-14T04:41:49.770Z,14.63
2022-09-14T04:42:52.602Z,14.71
2022-09-14T04:43:56.764Z,14.82
2022-09-14T04:44:59.603Z,14.94
2022-09-14T04:46:07.483Z,14.89
2022-09-14T04:47:10.442Z,14.90
2022-09-14T04:48:16.824Z,14.91
2022-09-14T04:49:21.805Z,14.92
2022-09-14T04:50:24.662Z,14.95
2022-09-14T04:51:30.307Z,15.01
2022-09-14T04:52:33.144Z,14.98
2022-09-14T04:53:37.642Z,15.00
2022-09-14T04:54:40.439Z,15.03
2022-09-14T04:55:43.443Z,14.87
2022-09-14T04:56:46.582Z,14.92
2022-09-14T04:57:49.726Z,14.92
2022-09-14T04:58:59.142Z,15.07
2022-09-14T05:00:02.475Z,15.08
2022-09-14T05:01:09.144Z,15.16
2022-09-14T05:02:11.991Z,15.31
2022-09-14T05:03:14.886Z,15.24
2022-09-14T05:04:17.980Z,15.24
2022-09-14T05:05:20.886Z,15.20
2022-09-14T05:06:27.178Z,15.24
2022-09-14T05:07:33.665Z,15.23
2022-09-14T05:08:38.799Z,15.26
2022-09-14T05:09:41.865Z,15.23
2022-09-14T05:10:45.175Z,15.26
2022-09-14T05:11:50.117Z,15.29
2022-09-14T05:12:53.146Z,15.36
2022-09-14T05:14:03.746Z,15.32
2022-09-14T05:15:07.353Z,15.35
2022-09-14T05:16:22.304Z,15.34
2022-09-14T05:17:25.420Z,15.44
2022-09-14T05:18:28.495Z,15.54
2022-09-14T05:19:31.628Z,15.49
2022-09-14T05:20:35.135Z,15.55
2022-09-14T05:21:38.538Z,15.55
2022-09-14T05:22:41.398Z,15.56
2022-09-14T05:23:44.628Z,15.47
2022-09-14T05:24:47.576Z,15.55
2022-09-14T05:25:54.221Z,15.64
2022-09-14T05:27:01.601Z,15.66
2022-09-14T05:28:05.300Z,15.73
2022-09-14T05:29:11.891Z,15.72
2022-09-14T05:30:14.797Z,15.75
2022-09-14T05:31:17.867Z,15.85
2022-09-14T05:32:20.880Z,15.94
2022-09-14T05:33:24.168Z,15.90
2022-09-14T05:34:27.100Z,15.95
2022-09-14T05:35:30.092Z,15.93
2022-09-14T05:36:33.100Z,15.95
2022-09-14T05:37:36.011Z,15.99
2022-09-14T05:38:40.348Z,16.03
2022-09-14T05:39:43.204Z,15.99
2022-09-14T05:40:46.296Z,15.87
2022-09-14T05:41:50.464Z,16.06
2022-09-14T05:42:53.384Z,16.08
2022-09-14T05:43:56.519Z,16.17
2022-09-14T05:44:59.467Z,16.19
2022-09-14T05:46:04.293Z,15.95
2022-09-14T05:47:07.338Z,15.90
2022-09-14T05:48:10.262Z,15.75
2022-09-14T05:49:13.084Z,15.95
2022-09-14T05:50:19.580Z,16.11
2022-09-14T05:51:24.496Z,16.33
2022-09-14T05:52:30.212Z,16.33
2022-09-14T05:53:33.955Z,16.40
2022-09-14T05:54:36.891Z,16.53
2022-09-14T05:55:39.857Z,16.42
2022-09-14T05:56:42.844Z,16.48
2022-09-14T05:57:50.352Z,16.57
2022-09-14T05:58:53.868Z,16.52
2022-09-14T06:00:00.699Z,16.40
2022-09-14T06:01:21.737Z,16.49
2022-09-14T06:02:25.339Z,16.45
2022-09-14T06:03:28.304Z,16.61
2022-09-14T06:04:31.301Z,16.73
2022-09-14T06:05:36.077Z,16.81
2022-09-14T06:06:39.163Z,16.96
2022-09-14T06:07:43.045Z,16.78
2022-09-14T06:08:46.988Z,16.91
2022-09-14T06:09:49.830Z,17.02
2022-09-14T06:10:52.843Z,16.92
2022-09-14T06:11:55.694Z,17.04
2022-09-14T06:13:00.167Z,17.05
2022-09-14T06:14:03.611Z,17.17
2022-09-14T06:15:07.037Z,17.28
2022-09-14T06:16:13.973Z,17.32
2022-09-14T06:17:16.839Z,17.10
2022-09-14T06:18:19.820Z,17.24
2022-09-14T06:19:22.710Z,17.19
2022-09-14T06:20:25.677Z,17.48
2022-09-14T06:21:31.387Z,17.57
2022-09-14T06:22:34.502Z,17.65
2022-09-14T06:23:37.717Z,17.64
2022-09-14T06:24:40.673Z,17.66
2022-09-14T06:25:43.587Z,17.76
2022-09-14T06:26:46.635Z,17.67
2022-09-14T06:27:49.746Z,17.73
2022-09-14T06:28:53.786Z,17.85
2022-09-14T06:29:57.031Z,17.95
2022-09-14T06:31:01.048Z,17.78
2022-09-14T06:32:04.080Z,17.82
2022-09-14T06:33:06.916Z,17.96
2022-09-14T06:34:13.647Z,18.07
2022-09-14T06:35:16.554Z,17.95
2022-09-14T06:36:25.573Z,18.10
2022-09-14T06:37:28.368Z,18.15
2022-09-14T06:38:31.483Z,18.30
2022-09-14T06:39:34.550Z,18.11
2022-09-14T06:40:37.355Z,18.09
2022-09-14T06:41:43.605Z,18.27
2022-09-14T06:42:46.502Z,18.10
2022-09-14T06:43:50.644Z,18.02
2022-09-14T06:44:53.557Z,18.05
2022-09-14T06:46:05.052Z,18.01
2022-09-14T06:47:08.062Z,17.87
2022-09-14T06:48:10.956Z,17.60
2022-09-14T06:49:20.868Z,17.52
2022-09-14T06:50:24.069Z,17.44
2022-09-14T06:51:35.120Z,17.32
2022-09-14T06:52:38.084Z,17.23
2022-09-14T06:53:43.217Z,17.33
2022-09-14T06:54:47.080Z,17.36
2022-09-14T06:55:50.228Z,17.20
2022-09-14T06:56:53.439Z,17.04
2022-09-14T06:57:56.370Z,17.01
2022-09-14T06:58:59.629Z,16.84
2022-09-14T07:00:03.092Z,16.67
2022-09-14T07:01:17.736Z,16.69
2022-09-14T07:02:21.039Z,17.02
2022-09-14T07:03:27.764Z,17.10
2022-09-14T07:04:30.698Z,16.76
2022-09-14T07:05:33.798Z,16.54
2022-09-14T07:06:49.280Z,16.73
2022-09-14T07:07:53.640Z,16.94
2022-09-14T07:08:56.725Z,16.98
2022-09-14T07:09:59.539Z,17.13
2022-09-14T07:11:03.242Z,17.09
2022-09-14T07:12:06.212Z,17.03
2022-09-14T07:13:09.037Z,17.16
2022-09-14T07:14:12.897Z,17.14
2022-09-14T07:15:16.060Z,17.20
2022-09-14T07:16:18.914Z,16.80
2022-09-14T07:17:22.625Z,16.68
2022-09-14T07:18:32.136Z,16.92
2022-09-14T07:19:34.953Z,17.23
2022-09-14T07:20:37.879Z,17.09
2022-09-14T07:21:41.421Z,16.86
2022-09-14T07:22:44.392Z,16.84
2022-09-14T07:23:48.477Z,16.68
2022-09-14T07:24:51.386Z,16.68
2022-09-14T07:26:22.276Z,16.87
2022-09-14T07:27:25.091Z,17.08
2022-09-14T07:28:32.290Z,17.08
2022-09-14T07:29:36.069Z,17.14
2022-09-14T07:30:39.614Z,17.23
2022-09-14T07:31:44.950Z,17.17
2022-09-14T07:32:47.730Z,17.01
2022-09-14T07:33:55.830Z,17.14
2022-09-14T07:34:58.776Z,17.23
2022-09-14T07:36:10.858Z,17.10
2022-09-14T07:37:13.761Z,16.96
2022-09-14T07:38:26.953Z,17.25
2022-09-14T07:39:38.677Z,16.77
2022-09-14T07:40:47.610Z,16.81
2022-09-14T07:41:50.511Z,16.80
2022-09-14T07:42:57.640Z,16.95
2022-09-14T07:44:02.556Z,17.02
2022-09-14T07:45:06.344Z,17.06
2022-09-14T07:46:09.409Z,16.93
2022-09-14T07:47:12.545Z,16.98
2022-09-14T07:48:15.507Z,16.82
2022-09-14T07:49:18.662Z,16.88
2022-09-14T07:50:21.882Z,16.98
2022-09-14T07:51:25.882Z,17.04
2022-09-14T07:52:28.755Z,17.29
2022-09-14T07:53:32.495Z,17.23
2022-09-14T07:54:35.804Z,17.37
2022-09-14T07:55:42.316Z,17.33
2022-09-14T07:56:46.041Z,17.15
2022-09-14T07:57:56.392Z,17.32
2022-09-14T07:59:23.712Z,17.31
2022-09-14T08:00:27.239Z,17.17
2022-09-14T08:01:30.854Z,17.10
2022-09-14T08:02:34.898Z,17.00
2022-09-14T08:03:40.460Z,17.03
2022-09-14T08:04:43.688Z,17.24
2022-09-14T08:05:46.668Z,17.44
2022-09-14T08:06:49.630Z,17.48
2022-09-14T08:07:56.642Z,17.56
2022-09-14T08:08:59.603Z,17.54
2022-09-14T08:10:02.582Z,17.45
2022-09-14T08:11:12.137Z,17.36
2022-09-14T08:12:16.521Z,17.49
2022-09-14T08:13:19.365Z,17.60
2022-09-14T08:14:22.473Z,17.54
2022-09-14T08:15:28.374Z,17.59
2022-09-14T08:16:34.858Z,17.72
2022-09-14T08:17:38.697Z,17.57
2022-09-14T08:18:41.986Z,17.64
2022-09-14T08:19:45.358Z,17.68
2022-09-14T08:20:48.236Z,17.56
2022-09-14T08:21:51.604Z,17.73
2022-09-14T08:22:54.394Z,17.54
2022-09-14T08:24:01.778Z,17.53
2022-09-14T08:25:05.088Z,17.64
2022-09-14T08:26:14.028Z,17.66
2022-09-14T08:27:17.456Z,17.75
2022-09-14T08:28:20.460Z,17.91
2022-09-14T08:29:23.369Z,17.82
2022-09-14T08:30:26.239Z,17.86
2022-09-14T08:31:29.692Z,17.92
2022-09-14T08:32:32.880Z,18.04
2022-09-14T08:33:38.941Z,18.21
2022-09-14T08:34:41.925Z,18.05
2022-09-14T08:35:58.670Z,18.17
2022-09-14T08:37:01.563Z,18.17
2022-09-14T08:38:04.347Z,18.35
2022-09-14T08:39:14.884Z,18.68
2022-09-14T08:40:19.565Z,18.60
2022-09-14T08:41:22.581Z,18.94
2022-09-14T08:42:26.172Z,19.42
2022-09-14T08:43:29.102Z,19.65
2022-09-14T08:44:47.413Z,19.86
2022-09-14T08:45:53.408Z,19.68
2022-09-14T08:47:40.133Z,19.64
2022-09-14T08:48:49.656Z,19.92
2022-09-14T08:50:17.507Z,20.24
2022-09-14T08:51:22.672Z,20.32
2022-09-14T08:52:39.299Z,19.80
2022-09-14T08:53:44.626Z,20.06
2022-09-14T08:54:50.580Z,20.01
2022-09-14T08:56:00.370Z,20.12
2022-09-14T08:57:17.937Z,19.89
2022-09-14T08:58:46.287Z,20.00
2022-09-14T09:00:08.563Z,20.08
2022-09-14T09:01:45.426Z,19.93
2022-09-14T09:03:15.705Z,20.14
2022-09-14T09:04:48.290Z,19.74
2022-09-14T09:06:06.295Z,19.85
2022-09-14T09:07:29.247Z,19.31
2022-09-14T09:08:43.387Z,19.06
2022-09-14T09:09:55.084Z,18.91
2022-09-14T09:11:00.990Z,19.08
2022-09-14T09:12:06.013Z,19.45
2022-09-14T09:13:14.757Z,19.62
2022-09-14T09:14:30.506Z,19.57
2022-09-14T09:15:41.471Z,19.78
2022-09-14T09:16:49.067Z,19.88
2022-09-14T09:18:00.140Z,19.52
2022-09-14T09:19:12.038Z,19.31
2022-09-14T09:20:26.826Z,19.41
2022-09-14T09:21:35.799Z,19.93
2022-09-14T09:23:12.611Z,20.24
2022-09-14T09:24:40.944Z,20.09
2022-09-14T09:26:06.777Z,20.12
2022-09-14T09:27:16.040Z,20.22
2022-09-14T09:28:20.183Z,20.26
2022-09-14T09:29:23.893Z,20.39
2022-09-14T09:30:30.019Z,20.38
2022-09-14T09:31:39.921Z,20.55
2022-09-14T09:32:43.349Z,20.45
2022-09-14T09:33:49.370Z,20.61
2022-09-14T09:34:52.425Z,20.86
2022-09-14T09:35:55.871Z,21.17
2022-09-14T09:37:01.404Z,21.27
2022-09-14T09:38:13.936Z,21.25
2022-09-14T09:39:17.737Z,21.32
2022-09-14T09:40:29.259Z,21.41
2022-09-14T09:42:01.712Z,21.43
2022-09-14T09:43:06.323Z,20.89
2022-09-14T09:44:10.778Z,21.31
2022-09-14T09:45:13.853Z,21.19
2022-09-14T09:46:18.104Z,21.38
2022-09-14T09:47:37.946Z,21.35
2022-09-14T09:48:43.367Z,21.51
2022-09-14T09:49:46.602Z,21.97
2022-09-14T09:50:59.191Z,22.07
2022-09-14T09:52:29.225Z,22.27
2022-09-14T09:53:35.421Z,22.45
2022-09-14T09:54:41.991Z,22.30
2022-09-14T09:55:49.934Z,22.68
2022-09-14T09:57:16.380Z,22.40
2022-09-14T09:58:28.128Z,21.99
2022-09-14T09:59:38.351Z,21.79
2022-09-14T10:00:44.451Z,21.92
2022-09-14T10:01:47.585Z,21.90
2022-09-14T10:02:52.052Z,21.95
2022-09-14T10:04:20.973Z,22.04
2022-09-14T10:05:29.252Z,22.46
2022-09-14T10:06:40.726Z,22.47
2022-09-14T10:07:49.863Z,22.67
2022-09-14T10:08:55.378Z,23.07
2022-09-14T10:10:20.199Z,22.90
2022-09-14T10:11:38.597Z,22.84
2022-09-14T10:12:48.642Z,23.00
2022-09-14T10:13:51.503Z,22.39
2022-09-14T10:15:14.624Z,22.41
2022-09-14T10:16:20.355Z,23.00
2022-09-14T10:17:24.079Z,22.77
2022-09-14T10:18:30.208Z,22.53
2022-09-14T10:19:33.672Z,22.38
2022-09-14T10:20:40.152Z,22.30
2022-09-14T10:22:25.714Z,22.40
2022-09-14T10:23:33.603Z,22.13
2022-09-14T10:24:38.243Z,21.93
2022-09-14T10:25:41.273Z,22.22
2022-09-14T10:26:44.347Z,22.68
2022-09-14T10:27:56.418Z,22.37
2022-09-14T10:29:42.721Z,22.76
2022-09-14T10:30:57.712Z,22.73
2022-09-14T10:32:17.963Z,23.16
2022-09-14T10:33:21.095Z,23.26
2022-09-14T10:34:24.117Z,23.26
2022-09-14T10:35:49.782Z,23.03
2022-09-14T10:37:07.666Z,22.79
2022-09-14T10:38:46.316Z,23.23
2022-09-14T10:40:13.807Z,22.99
2022-09-14T10:41:43.894Z,22.98
2022-09-14T10:43:43.507Z,22.73
2022-09-14T10:44:49.106Z,22.76
2022-09-14T10:45:56.201Z,22.98
2022-09-14T10:47:10.684Z,22.58
2022-09-14T10:48:46.341Z,22.44
2022-09-14T10:50:15.985Z,22.14
2022-09-14T10:51:43.813Z,22.69
2022-09-14T10:53:06.394Z,22.57
2022-09-14T10:54:46.821Z,22.44
2022-09-14T10:56:29.155Z,22.25
2022-09-14T10:57:41.870Z,22.41
2022-09-14T10:59:32.090Z,22.35
2022-09-14T11:01:05.931Z,22.34
2022-09-14T11:02:27.745Z,22.14
2022-09-14T11:03:55.352Z,22.51
2022-09-14T11:05:20.288Z,22.38
2022-09-14T11:06:31.835Z,21.93
2022-09-14T11:07:39.441Z,21.98
2022-09-14T11:08:49.011Z,22.01
2022-09-14T11:10:15.298Z,21.37
2022-09-14T11:11:47.042Z,21.40
2022-09-14T11:13:05.338Z,21.98
2022-09-14T11:14:39.779Z,21.75
2022-09-14T11:16:10.283Z,21.64
2022-09-14T11:17:49.357Z,21.61
2022-09-14T11:19:11.348Z,21.67
2022-09-14T11:20:33.330Z,21.53
2022-09-14T11:21:54.536Z,21.63
2022-09-14T11:23:32.228Z,21.70
2022-09-14T11:24:43.485Z,21.91
2022-09-14T11:25:53.109Z,21.89
2022-09-14T11:27:03.726Z,21.51
2022-09-14T11:28:30.139Z,21.24
2022-09-14T11:29:41.975Z,21.22
2022-09-14T11:31:02.431Z,20.97
2022-09-14T11:32:21.123Z,20.62
2022-09-14T11:33:36.089Z,20.93
2022-09-14T11:34:58.275Z,21.26
2022-09-14T11:36:16.608Z,21.31
2022-09-14T11:37:25.359Z,21.21
2022-09-14T11:38:48.797Z,21.27
2022-09-14T11:40:15.015Z,21.32
2022-09-14T11:41:25.394Z,21.32
2022-09-14T11:42:35.976Z,20.69
2022-09-14T11:44:01.991Z,21.08
2022-09-14T11:45:16.716Z,21.38
2022-09-14T11:46:27.138Z,21.42
2022-09-14T11:47:37.554Z,21.50
2022-09-14T11:49:13.009Z,21.53
2022-09-14T11:50:27.145Z,21.80
2022-09-14T11:52:24.657Z,21.54
2022-09-14T11:53:27.946Z,21.23
2022-09-14T11:54:51.161Z,21.33
2022-09-14T11:55:54.280Z,21.22
2022-09-14T11:57:00.944Z,21.40
2022-09-14T11:58:07.705Z,21.52
2022-09-14T11:59:36.020Z,21.51
2022-09-14T12:01:00.777Z,21.45
2022-09-14T12:02:27.982Z,21.80
2022-09-14T12:03:56.991Z,21.78
2022-09-14T12:05:06.131Z,21.84
2022-09-14T12:06:33.814Z,22.01
2022-09-14T12:07:39.634Z,21.90
2022-09-14T12:08:42.777Z,22.06
2022-09-14T12:09:48.762Z,22.18
2022-09-14T12:11:09.816Z,22.46
2022-09-14T12:12:31.643Z,22.58
2022-09-14T12:13:35.239Z,22.83
2022-09-14T12:14:41.069Z,23.07
2022-09-14T12:15:45.291Z,23.21
2022-09-14T12:17:22.589Z,22.72
2022-09-14T12:18:28.387Z,22.99
2022-09-14T12:19:32.297Z,22.70
2022-09-14T12:20:40.849Z,22.82
2022-09-14T12:21:43.753Z,22.75
2022-09-14T12:22:49.994Z,22.87
2022-09-14T12:23:58.107Z,23.23
2022-09-14T12:25:15.909Z,23.49
2022-09-14T12:26:18.789Z,23.70
2022-09-14T12:27:23.334Z,23.47
2022-09-14T12:28:48.671Z,23.51
2022-09-14T12:29:51.764Z,23.46
2022-09-14T12:30:54.759Z,23.36
2022-09-14T12:32:03.062Z,23.11
2022-09-14T12:33:34.525Z,23.10
2022-09-14T12:34:37.457Z,23.39
2022-09-14T12:35:40.260Z,23.56
2022-09-14T12:36:43.307Z,23.73
2022-09-14T12:37:46.389Z,23.95
2022-09-14T12:38:55.389Z,23.70
2022-09-14T12:40:36.614Z,23.75
2022-09-14T12:41:39.681Z,23.98
2022-09-14T12:42:42.512Z,23.97
2022-09-14T12:43:45.394Z,24.66
2022-09-14T12:44:48.313Z,24.94
2022-09-14T12:46:00.472Z,25.02
2022-09-14T12:47:22.186Z,24.87
2022-09-14T12:48:51.324Z,25.14
2022-09-14T12:49:58.074Z,24.91
2022-09-14T12:51:02.714Z,24.41
2022-09-14T12:52:19.209Z,24.84
2022-09-14T12:53:30.064Z,24.78
2022-09-14T12:55:15.003Z,24.70
2022-09-14T12:56:30.226Z,24.57
2022-09-14T12:57:49.448Z,24.77
2022-09-14T12:59:17.068Z,24.98
2022-09-14T13:00:20.866Z,24.88
2022-09-14T13:01:33.404Z,24.92
2022-09-14T13:03:10.483Z,25.11
2022-09-14T13:04:20.596Z,25.45
2022-09-14T13:05:28.240Z,25.12
2022-09-14T13:06:41.491Z,25.86
2022-09-14T13:07:45.640Z,26.12
2022-09-14T13:08:53.268Z,25.74
2022-09-14T13:09:58.677Z,25.40
2022-09-14T13:11:01.611Z,25.74
2022-09-14T13:12:06.958Z,26.20
2022-09-14T13:13:17.914Z,26.63
2022-09-14T13:14:24.420Z,26.95
2022-09-14T13:15:33.785Z,26.87
2022-09-14T13:16:43.466Z,27.02
2022-09-14T13:18:24.367Z,27.29
2022-09-14T13:19:32.441Z,27.04
2022-09-14T13:20:36.202Z,26.85
2022-09-14T13:21:47.994Z,27.11
2022-09-14T13:22:50.922Z,26.73
2022-09-14T13:23:53.937Z,26.44
2022-09-14T13:24:56.925Z,26.19
2022-09-14T13:26:00.281Z,25.61
2022-09-14T13:27:04.587Z,26.12
2022-09-14T13:28:17.934Z,26.07
2022-09-14T13:29:21.653Z,26.37
2022-09-14T13:30:26.313Z,25.81
2022-09-14T13:31:33.955Z,25.95
2022-09-14T13:32:42.974Z,25.60
2022-09-14T13:33:52.060Z,25.51
2022-09-14T13:34:55.275Z,25.71
2022-09-14T13:36:01.548Z,25.73
2022-09-14T13:37:05.708Z,25.82
2022-09-14T13:38:15.746Z,25.80
2022-09-14T13:39:29.739Z,25.78
2022-09-14T13:40:36.123Z,25.72
2022-09-14T13:41:43.701Z,25.98
2022-09-14T13:42:46.624Z,26.15
2022-09-14T13:43:52.612Z,26.23
2022-09-14T13:44:55.785Z,26.16
2022-09-14T13:45:58.910Z,26.54
2022-09-14T13:47:05.800Z,26.38
2022-09-14T13:48:09.173Z,25.86
2022-09-14T13:49:13.384Z,25.88
2022-09-14T13:50:18.036Z,25.92
2022-09-14T13:51:28.944Z,26.02
2022-09-14T13:53:00.561Z,25.74
2022-09-14T13:54:16.751Z,25.92
2022-09-14T13:55:33.091Z,25.47
2022-09-14T13:56:37.051Z,25.95
2022-09-14T13:57:39.882Z,25.91
2022-09-14T13:58:44.070Z,25.59
2022-09-14T14:00:20.816Z,25.74
2022-09-14T14:01:29.031Z,25.15
2022-09-14T14:02:34.893Z,25.44
2022-09-14T14:03:42.376Z,25.47
2022-09-14T14:04:49.044Z,25.28
2022-09-14T14:05:52.180Z,24.81
2022-09-14T14:07:14.864Z,25.07
2022-09-14T14:08:37.917Z,25.06
2022-09-14T14:09:42.970Z,25.03
2022-09-14T14:10:50.273Z,25.09
2022-09-14T14:11:55.423Z,24.89
2022-09-14T14:12:59.690Z,25.37
2022-09-14T14:14:17.517Z,25.20
2022-09-14T14:15:20.401Z,25.31
2022-09-14T14:16:26.901Z,25.33
2022-09-14T14:18:41.745Z,25.37
2022-09-14T14:19:57.280Z,25.59
2022-09-14T14:21:22.084Z,25.67
2022-09-14T14:22:35.799Z,25.49
2022-09-14T14:23:56.675Z,25.74
2022-09-14T14:25:19.861Z,25.55
2022-09-14T14:26:27.689Z,25.23
2022-09-14T14:27:34.754Z,25.29
2022-09-14T14:28:37.849Z,24.29
2022-09-14T14:29:40.814Z,24.37
2022-09-14T14:30:43.891Z,24.17
2022-09-14T14:31:46.878Z,24.23
2022-09-14T14:32:55.167Z,23.97
2022-09-14T14:33:59.100Z,24.45
2022-09-14T14:35:16.123Z,24.33
2022-09-14T14:36:19.893Z,23.88
2022-09-14T14:37:22.924Z,24.01
2022-09-14T14:38:26.075Z,23.88
2022-09-14T14:39:28.720Z,23.93
2022-09-14T14:40:33.539Z,24.25
2022-09-14T14:41:37.065Z,24.18
2022-09-14T14:42:40.333Z,24.06
2022-09-14T14:43:49.942Z,23.83
2022-09-14T14:44:52.673Z,23.96
2022-09-14T14:46:02.152Z,24.07
2022-09-14T14:47:06.380Z,24.34
2022-09-14T14:48:10.828Z,24.40
2022-09-14T14:49:16.283Z,24.49
2022-09-14T14:50:27.741Z,24.41
2022-09-14T14:51:30.408Z,24.26
2022-09-14T14:52:33.024Z,23.90
2022-09-14T14:53:35.672Z,23.88